Reading, Massachusetts
Current Conditions -  °F | °C
As of 4:53 PM on Friday 24 Oct 2014 (Local Time) from KBVY Reporting Station
Overcast Overcast  
Wind Chill: 51°   Ceiling: 2500
Heat Index: 51°   Visibility: 10mi
Dew Point: 44°   Wind: 9mph
Humidity: 77%   Direction: 300°WNW
Pressure: 29.68"   Gusts: NA
Location:  42.53°N, 71.1°W
Report Text: KBVY 242053Z 30008KT 10SM OVC025 11/07 A2968 RMK AO2 SLP046 T01060067 51002
Loading
Personal Weather Stations






























Interactive Weather Map
Tropical Storm Tracking
New forecast layout! Learn more

10-Day Weather Forecast

Advertisements
Track Severe Weather on mobile